Impacts METAR Board INFO
IDs:

KBWI - Baltimore-Washington, MD, US

Updated at: 0151 UTC 22 Jan 2018
Potential Impact None Slight Moderate High
Time21/13Z 21/14Z 21/15Z 21/16Z 21/17Z 21/18Z 21/19Z 21/20Z 21/21Z 21/22Z 21/23Z 22/00Z 22/01Z
VIS10 10 10 10 10 10 10 10 10 10 10 10 10
CIG38 40 42 45 45 80 47 80 80 50 80 -- 85
CoverBKNBKNBKNBKNBKNBKNBKNBKNBKNBKNBKNSCTBKN
FltCatVFRVFRVFRVFRVFRVFRVFRVFRVFRVFRVFRVFRVFR
WX--------------------------
WDir03000014016001201201101300100
WSpd0 3 0 0 5 5 0 7 5 6 4 0 3
WGst-- -- -- -- -- -- -- -- -- -- -- -- --
Raw hourly METARs
KBWI 211254Z 00000KT 10SM BKN038 BKN250 03/01 A3017 RMK AO2 SLP218 T00280011
KBWI 211354Z 30003KT 10SM BKN040 05/02 A3020 RMK AO2 SLP227 T00500017
KBWI 211454Z 00000KT 10SM BKN042 07/02 A3022 RMK AO2 SLP233 T00720017 53016
KBWI 211554Z 00000KT 10SM BKN045 10/03 A3022 RMK AO2 SLP232 T01000028
KBWI 211654Z 14005KT 10SM BKN045 11/03 A3020 RMK AO2 SLP227 T01060028
KBWI 211754Z 16005KT 10SM SCT047 BKN080 BKN250 12/03 A3016 RMK AO2 SLP214 T01170033 10117 20017 58019
KBWI 211854Z 00000KT 10SM BKN047 BKN080 BKN250 13/03 A3015 RMK AO2 SLP209 T01330033
KBWI 211954Z 12007KT 10SM FEW047 BKN080 BKN250 13/03 A3014 RMK AO2 SLP206 T01330033
KBWI 212054Z 12005KT 10SM SCT048 BKN080 12/03 A3014 RMK AO2 SLP208 T01220033 55005
KBWI 212154Z 11006KT 10SM BKN050 BKN080 11/03 A3015 RMK AO2 SLP210 T01110033
KBWI 212254Z 13004KT 10SM FEW055 BKN080 BKN250 11/03 A3014 RMK AO2 SLP208 T01060028
KBWI 212354Z 00000KT 10SM FEW055 SCT085 09/03 A3015 RMK AO2 SLP208 T00890028 10139 20089 50000
KBWI 220054Z 10003KT 10SM SCT060 BKN085 08/03 A3015 RMK AO2 SLP208 T00780033